sensor_id;sensor_type;location;lat;lon;timestamp;P1;durP1;ratioP1;P2;durP2;ratioP2
9506;SDS011;4791;47.528;9.372;2023-04-03T00:06:50;6.20;;;5.70;;
9506;SDS011;4791;47.528;9.372;2023-04-03T00:21:54;5.43;;;5.00;;
9506;SDS011;4791;47.528;9.372;2023-04-03T00:36:54;5.27;;;3.67;;
9506;SDS011;4791;47.528;9.372;2023-04-03T00:51:55;4.88;;;3.78;;
9506;SDS011;4791;47.528;9.372;2023-04-03T01:06:57;4.73;;;4.33;;
9506;SDS011;4791;47.528;9.372;2023-04-03T01:22:13;5.23;;;4.73;;
9506;SDS011;4791;47.528;9.372;2023-04-03T01:37:17;5.33;;;4.83;;
9506;SDS011;4791;47.528;9.372;2023-04-03T01:52:17;5.28;;;4.10;;
9506;SDS011;4791;47.528;9.372;2023-04-03T02:07:18;5.15;;;4.65;;
9506;SDS011;4791;47.528;9.372;2023-04-03T02:22:18;5.32;;;4.57;;
9506;SDS011;4791;47.528;9.372;2023-04-03T02:37:20;5.40;;;4.50;;
9506;SDS011;4791;47.528;9.372;2023-04-03T02:52:21;5.03;;;4.38;;
9506;SDS011;4791;47.528;9.372;2023-04-03T03:07:21;5.45;;;4.78;;
9506;SDS011;4791;47.528;9.372;2023-04-03T03:22:22;5.53;;;4.93;;
9506;SDS011;4791;47.528;9.372;2023-04-03T03:37:22;6.80;;;5.10;;
9506;SDS011;4791;47.528;9.372;2023-04-03T03:52:22;6.32;;;5.15;;
9506;SDS011;4791;47.528;9.372;2023-04-03T04:07:26;5.80;;;4.32;;
9506;SDS011;4791;47.528;9.372;2023-04-03T04:37:28;6.30;;;5.25;;
9506;SDS011;4791;47.528;9.372;2023-04-03T04:52:28;7.15;;;4.78;;
9506;SDS011;4791;47.528;9.372;2023-04-03T05:07:29;5.38;;;4.65;;
9506;SDS011;4791;47.528;9.372;2023-04-03T05:22:31;6.18;;;4.50;;
9506;SDS011;4791;47.528;9.372;2023-04-03T05:37:32;5.75;;;4.53;;
9506;SDS011;4791;47.528;9.372;2023-04-03T05:52:36;5.93;;;5.10;;
9506;SDS011;4791;47.528;9.372;2023-04-03T06:07:40;8.48;;;5.18;;
9506;SDS011;4791;47.528;9.372;2023-04-03T06:22:44;7.30;;;4.63;;
9506;SDS011;4791;47.528;9.372;2023-04-03T06:37:45;6.03;;;5.17;;
9506;SDS011;4791;47.528;9.372;2023-04-03T06:52:46;6.07;;;4.82;;
9506;SDS011;4791;47.528;9.372;2023-04-03T07:07:46;6.18;;;5.30;;
9506;SDS011;4791;47.528;9.372;2023-04-03T07:22:47;6.72;;;4.82;;
9506;SDS011;4791;47.528;9.372;2023-04-03T07:37:50;6.72;;;5.40;;
9506;SDS011;4791;47.528;9.372;2023-04-03T07:52:53;6.82;;;4.85;;
9506;SDS011;4791;47.528;9.372;2023-04-03T08:07:56;7.60;;;5.00;;
9506;SDS011;4791;47.528;9.372;2023-04-03T08:22:56;5.72;;;4.53;;
9506;SDS011;4791;47.528;9.372;2023-04-03T08:37:57;7.18;;;5.28;;
9506;SDS011;4791;47.528;9.372;2023-04-03T08:52:57;7.35;;;5.38;;
9506;SDS011;4791;47.528;9.372;2023-04-03T09:08:00;7.07;;;5.50;;
9506;SDS011;4791;47.528;9.372;2023-04-03T09:23:17;6.25;;;4.82;;
9506;SDS011;4791;47.528;9.372;2023-04-03T09:38:21;7.72;;;5.10;;
9506;SDS011;4791;47.528;9.372;2023-04-03T10:08:31;6.05;;;4.53;;
9506;SDS011;4791;47.528;9.372;2023-04-03T10:23:42;6.70;;;5.07;;
9506;SDS011;4791;47.528;9.372;2023-04-03T11:09:28;5.15;;;3.58;;
9506;SDS011;4791;47.528;9.372;2023-04-03T11:24:32;5.93;;;4.45;;
9506;SDS011;4791;47.528;9.372;2023-04-03T11:39:36;4.15;;;3.50;;
9506;SDS011;4791;47.528;9.372;2023-04-03T11:54:45;4.63;;;3.45;;
9506;SDS011;4791;47.528;9.372;2023-04-03T12:24:49;4.00;;;2.85;;
9506;SDS011;4791;47.528;9.372;2023-04-03T12:40:03;2.75;;;2.03;;
9506;SDS011;4791;47.528;9.372;2023-04-03T12:55:14;2.75;;;2.45;;
9506;SDS011;4791;47.528;9.372;2023-04-03T13:10:17;3.75;;;2.72;;
9506;SDS011;4791;47.528;9.372;2023-04-03T13:25:23;2.95;;;2.50;;
9506;SDS011;4791;47.528;9.372;2023-04-03T13:40:25;3.55;;;2.60;;
9506;SDS011;4791;47.528;9.372;2023-04-03T13:55:30;3.80;;;2.45;;
9506;SDS011;4791;47.528;9.372;2023-04-03T14:10:36;3.40;;;2.50;;
9506;SDS011;4791;47.528;9.372;2023-04-03T14:25:42;4.50;;;2.72;;
9506;SDS011;4791;47.528;9.372;2023-04-03T14:40:45;4.22;;;2.80;;
9506;SDS011;4791;47.528;9.372;2023-04-03T14:55:46;4.43;;;2.72;;
9506;SDS011;4791;47.528;9.372;2023-04-03T15:10:50;3.03;;;2.63;;
9506;SDS011;4791;47.528;9.372;2023-04-03T15:25:52;4.45;;;2.70;;
9506;SDS011;4791;47.528;9.372;2023-04-03T15:40:54;3.90;;;2.63;;
9506;SDS011;4791;47.528;9.372;2023-04-03T15:55:55;5.60;;;2.57;;
9506;SDS011;4791;47.528;9.372;2023-04-03T16:10:55;4.60;;;2.60;;
9506;SDS011;4791;47.528;9.372;2023-04-03T16:25:56;4.32;;;3.58;;
9506;SDS011;4791;47.528;9.372;2023-04-03T16:40:59;5.28;;;3.17;;
9506;SDS011;4791;47.528;9.372;2023-04-03T16:56:04;3.58;;;2.72;;
9506;SDS011;4791;47.528;9.372;2023-04-03T17:11:05;3.53;;;2.22;;
9506;SDS011;4791;47.528;9.372;2023-04-03T17:26:05;3.20;;;1.70;;
9506;SDS011;4791;47.528;9.372;2023-04-03T17:41:06;3.63;;;2.60;;
9506;SDS011;4791;47.528;9.372;2023-04-03T17:56:10;5.30;;;2.55;;
9506;SDS011;4791;47.528;9.372;2023-04-03T18:11:12;4.00;;;2.47;;
9506;SDS011;4791;47.528;9.372;2023-04-03T18:26:13;3.83;;;2.63;;
9506;SDS011;4791;47.528;9.372;2023-04-03T18:41:17;2.60;;;2.17;;
9506;SDS011;4791;47.528;9.372;2023-04-03T18:56:19;4.40;;;1.88;;
9506;SDS011;4791;47.528;9.372;2023-04-03T19:11:22;4.93;;;2.13;;
9506;SDS011;4791;47.528;9.372;2023-04-03T19:26:22;3.13;;;2.08;;
9506;SDS011;4791;47.528;9.372;2023-04-03T19:41:24;3.17;;;1.98;;
9506;SDS011;4791;47.528;9.372;2023-04-03T19:56:27;3.22;;;2.05;;
9506;SDS011;4791;47.528;9.372;2023-04-03T20:11:27;2.63;;;1.92;;
9506;SDS011;4791;47.528;9.372;2023-04-03T20:26:28;3.47;;;1.88;;
9506;SDS011;4791;47.528;9.372;2023-04-03T20:41:31;2.70;;;1.55;;
9506;SDS011;4791;47.528;9.372;2023-04-03T20:56:34;2.65;;;1.90;;
9506;SDS011;4791;47.528;9.372;2023-04-03T21:27:17;2.40;;;1.70;;
9506;SDS011;4791;47.528;9.372;2023-04-03T21:42:20;3.45;;;1.75;;
9506;SDS011;4791;47.528;9.372;2023-04-03T21:57:23;4.50;;;2.40;;
9506;SDS011;4791;47.528;9.372;2023-04-03T22:12:23;4.13;;;2.00;;
9506;SDS011;4791;47.528;9.372;2023-04-03T22:27:27;2.40;;;1.77;;
9506;SDS011;4791;47.528;9.372;2023-04-03T22:42:27;3.00;;;2.08;;
9506;SDS011;4791;47.528;9.372;2023-04-03T22:57:28;4.37;;;2.43;;
9506;SDS011;4791;47.528;9.372;2023-04-03T23:12:38;3.95;;;1.83;;
9506;SDS011;4791;47.528;9.372;2023-04-03T23:27:59;4.60;;;2.67;;
9506;SDS011;4791;47.528;9.372;2023-04-03T23:43:05;5.18;;;2.75;;
9506;SDS011;4791;47.528;9.372;2023-04-03T23:58:10;4.83;;;2.87;;
